Time;durP1;ratioP1;P1;durP2;ratioP2;P2;SDS_P1;SDS_P2;PMS_P1;PMS_P2;Temp;Humidity;BMP_temperature;BMP_pressure;BME280_temperature;BME280_humidity;BME280_pressure;Samples;Min_cycle;Max_cycle;Signal;HPM_P1;HPM_P2
2022/07/18 00:01:39;;;;;;;13.10;4.08;;;;;;;13.24;68.29;101189.91;2850647;82;21002;-86
2022/07/18 00:05:40;;;;;;;19.30;3.62;;;;;;;13.19;68.42;101184.95;2838511;82;21003;-86
2022/07/18 00:09:43;;;;;;;5.28;2.65;;;;;;;13.16;68.57;101185.16;2837280;82;21046;-87
2022/07/18 00:13:44;;;;;;;10.60;3.52;;;;;;;13.16;68.87;101191.01;2827053;83;21008;-87
2022/07/18 00:17:46;;;;;;;3.40;2.30;;;;;;;13.15;69.01;101188.80;2744089;84;21550;-86
2022/07/18 00:21:48;;;;;;;7.90;2.75;;;;;;;13.17;68.86;101190.90;2813664;84;21074;-86
2022/07/18 00:25:49;;;;;;;6.28;2.58;;;;;;;13.10;67.84;101191.00;2761423;85;21476;-86
2022/07/18 00:29:50;;;;;;;7.83;3.35;;;;;;;13.00;67.96;101189.53;2759300;84;21007;-86
2022/07/18 00:33:52;;;;;;;11.15;4.08;;;;;;;12.92;68.64;101201.30;2747137;84;21071;-86
2022/07/18 00:37:53;;;;;;;6.10;3.27;;;;;;;12.83;69.11;101193.52;2727779;85;20989;-85
2022/07/18 00:41:55;;;;;;;2.45;2.12;;;;;;;12.81;69.56;101194.95;2762202;84;21009;-85
2022/07/18 00:45:56;;;;;;;5.12;2.87;;;;;;;12.81;70.73;101194.95;2759159;84;21528;-86
2022/07/18 00:49:58;;;;;;;9.65;3.80;;;;;;;12.77;70.89;101196.17;2741773;85;21012;-86
2022/07/18 00:53:59;;;;;;;6.85;3.33;;;;;;;12.80;71.20;101197.77;2756830;84;21562;-86
2022/07/18 00:58:00;;;;;;;5.80;2.52;;;;;;;12.80;71.23;101197.27;2754776;85;20963;-86
2022/07/18 01:02:02;;;;;;;8.83;4.12;;;;;;;12.81;71.35;101196.80;2763528;86;21016;-86
2022/07/18 01:06:04;;;;;;;4.75;2.77;;;;;;;12.81;71.33;101193.63;2752804;84;21514;-85
2022/07/18 01:10:07;;;;;;;9.25;3.37;;;;;;;12.80;71.21;101198.59;2741952;86;21539;-86
2022/07/18 01:14:08;;;;;;;4.10;2.92;;;;;;;12.75;71.18;101196.78;2776414;84;21031;-86
2022/07/18 01:18:09;;;;;;;6.92;3.75;;;;;;;12.69;71.12;101191.41;2761817;84;21003;-86
2022/07/18 01:22:13;;;;;;;8.70;3.42;;;;;;;12.67;71.89;101189.81;2741330;85;21370;-87
2022/07/18 01:26:15;;;;;;;6.17;2.95;;;;;;;12.67;72.76;101196.02;2743762;86;20996;-85
2022/07/18 01:30:17;;;;;;;5.80;2.17;;;;;;;12.67;72.04;101188.02;2721282;85;21028;-86
2022/07/18 01:34:23;;;;;;;4.12;3.00;;;;;;;12.56;72.81;101190.17;2792276;83;21006;-85
2022/07/18 01:38:24;;;;;;;9.10;2.70;;;;;;;12.46;73.46;101185.65;2799957;82;21618;-86
2022/07/18 01:42:26;;;;;;;3.35;2.50;;;;;;;12.43;73.69;101188.92;2849275;82;20979;-86
2022/07/18 01:46:27;;;;;;;8.03;2.85;;;;;;;12.43;73.08;101186.72;2851264;82;21031;-87
2022/07/18 01:50:28;;;;;;;6.37;3.05;;;;;;;12.41;72.80;101185.52;2851043;82;20995;-86
2022/07/18 01:54:33;;;;;;;6.03;3.22;;;;;;;12.35;73.03;101189.96;2810040;84;21569;-87
2022/07/18 01:58:35;;;;;;;4.33;1.85;;;;;;;12.38;73.29;101190.23;2830230;83;20955;-86
2022/07/18 02:02:37;;;;;;;7.40;2.55;;;;;;;12.43;73.39;101191.59;2857810;83;20990;-86
2022/07/18 02:06:38;;;;;;;9.45;2.92;;;;;;;12.50;72.80;101193.78;2866468;82;21057;-87
2022/07/18 02:10:40;;;;;;;10.48;3.35;;;;;;;12.53;72.98;101187.74;2838726;82;21011;-86
2022/07/18 02:14:41;;;;;;;3.80;1.72;;;;;;;12.50;73.48;101191.12;2814115;83;20996;-86
2022/07/18 02:18:43;;;;;;;5.85;2.62;;;;;;;12.46;74.11;101197.16;2842205;82;20998;-87
2022/07/18 02:22:44;;;;;;;4.83;2.70;;;;;;;12.52;74.37;101195.84;2860473;81;20950;-86
2022/07/18 02:26:45;;;;;;;4.17;2.83;;;;;;;12.60;74.39;101193.94;2883802;81;21050;-87
2022/07/18 02:30:50;;;;;;;6.10;2.12;;;;;;;12.66;74.64;101194.33;2890057;81;21006;-87
2022/07/18 02:34:52;;;;;;;6.17;2.90;;;;;;;12.73;75.24;101191.17;2888132;81;21676;-86
2022/07/18 02:38:53;;;;;;;2.35;1.72;;;;;;;12.77;75.85;101185.96;2871464;81;20995;-86
2022/07/18 02:42:55;;;;;;;5.62;2.75;;;;;;;12.89;75.64;101192.20;2861296;83;21457;-86
2022/07/18 02:46:56;;;;;;;4.40;2.22;;;;;;;12.98;75.69;101199.02;2871158;81;20998;-86
2022/07/18 02:50:57;;;;;;;5.20;2.62;;;;;;;13.09;75.48;101191.97;2815191;83;21569;-86
2022/07/18 02:55:00;;;;;;;6.08;2.08;;;;;;;13.17;75.22;101190.90;2852308;82;20988;-86
2022/07/18 02:59:02;;;;;;;6.72;2.65;;;;;;;13.25;75.10;101195.61;2827270;83;20955;-86
2022/07/18 03:03:03;;;;;;;7.35;2.10;;;;;;;13.21;75.69;101192.35;2825492;82;21019;-87
2022/07/18 03:07:05;;;;;;;4.53;2.22;;;;;;;13.16;75.70;101187.83;2854464;82;20991;-87
2022/07/18 03:11:07;;;;;;;6.42;2.00;;;;;;;13.16;75.78;101189.17;2813569;83;21584;-87
2022/07/18 03:15:09;;;;;;;11.20;2.33;;;;;;;13.18;76.11;101185.92;2740874;84;21013;-86
2022/07/18 03:19:11;;;;;;;116.50;24.67;;;;;;;13.24;76.24;101189.91;2821810;82;21023;-86
2022/07/18 03:23:12;;;;;;;52.67;13.10;;;;;;;13.28;76.55;101198.91;2755249;86;21530;-86
2022/07/18 03:27:13;;;;;;;64.85;11.53;;;;;;;13.42;76.66;101210.33;2854848;83;21003;-86
2022/07/18 03:31:15;;;;;;;99.87;16.55;;;;;;;13.56;76.26;101206.11;2850653;81;21066;-86
2022/07/18 03:35:16;;;;;;;21.10;5.03;;;;;;;13.68;76.05;101194.91;2752705;83;21003;-86
2022/07/18 03:39:17;;;;;;;9.83;3.25;;;;;;;13.85;75.35;101189.52;2851539;82;21061;-86
2022/07/18 03:43:19;;;;;;;6.10;2.72;;;;;;;13.90;75.14;101193.16;2854338;82;20991;-87
2022/07/18 03:47:20;;;;;;;5.33;3.00;;;;;;;13.90;75.36;101186.95;2865752;81;21031;-87
2022/07/18 03:51:21;;;;;;;6.72;2.83;;;;;;;13.93;75.33;101192.05;2862754;82;21008;-87
2022/07/18 03:55:23;;;;;;;6.22;2.42;;;;;;;13.99;75.07;101190.23;2851402;82;21505;-86
2022/07/18 03:59:24;;;;;;;3.40;1.70;;;;;;;13.99;75.25;101179.52;2864488;81;21066;-85
2022/07/18 04:03:26;;;;;;;7.87;3.15;;;;;;;14.01;75.67;101188.27;2861366;81;20998;-86
2022/07/18 04:07:27;;;;;;;110.57;26.35;;;;;;;14.02;75.68;101193.98;2851991;82;21000;-87
2022/07/18 04:11:34;;;;;;;13.00;6.22;;;;;;;14.16;75.92;101196.02;2853406;82;21489;-90
2022/07/18 04:15:37;;;;;;;6.60;3.22;;;;;;;14.39;75.81;101194.94;2839224;83;20990;-89
2022/07/18 04:19:38;;;;;;;30.55;4.80;;;;;;;14.59;75.16;101201.78;2826229;82;21498;-84
2022/07/18 04:23:42;;;;;;;10.75;4.05;;;;;;;14.57;74.75;101202.41;2815844;82;20949;-84
2022/07/18 04:27:44;;;;;;;11.30;3.67;;;;;;;14.69;74.63;101202.69;2853245;82;21015;-85
2022/07/18 04:31:45;;;;;;;15.45;4.42;;;;;;;14.90;74.77;101195.16;2843529;82;21007;-84
2022/07/18 04:35:48;;;;;;;16.35;4.12;;;;;;;15.27;74.45;101194.66;2838187;82;20975;-86
2022/07/18 04:39:50;;;;;;;8.88;3.55;;;;;;;15.78;76.83;101181.27;2816819;82;21063;-86
2022/07/18 04:43:52;;;;;;;13.32;3.47;;;;;;;16.79;75.83;101184.69;2823136;82;21062;-86
2022/07/18 04:47:55;;;;;;;3.95;2.62;;;;;;;18.19;74.06;101179.37;2832487;83;21010;-86
2022/07/18 04:51:56;;;;;;;4.53;2.12;;;;;;;19.61;69.81;101184.66;2841471;82;21034;-86
2022/07/18 04:56:00;;;;;;;4.70;2.22;;;;;;;21.08;61.51;101172.75;2873673;82;21533;-86
2022/07/18 05:00:05;;;;;;;2.65;1.40;;;;;;;22.25;58.21;101167.59;2813060;82;20979;-86
2022/07/18 05:04:07;;;;;;;5.22;2.20;;;;;;;21.94;52.71;101180.17;2864348;82;21041;-86
2022/07/18 05:08:11;;;;;;;10.98;3.05;;;;;;;21.44;53.33;101182.77;2849357;82;20999;-86
2022/07/18 05:12:12;;;;;;;3.25;1.80;;;;;;;20.85;54.36;101186.18;2870816;81;21002;-86
2022/07/18 05:16:13;;;;;;;4.50;2.08;;;;;;;20.45;56.29;101182.48;2868589;82;21168;-85
2022/07/18 05:20:18;;;;;;;4.90;1.57;;;;;;;20.08;56.39;101180.58;2816962;83;20996;-86
2022/07/18 05:24:19;;;;;;;2.17;1.70;;;;;;;20.82;57.53;101176.55;2829241;82;21046;-86
2022/07/18 05:28:21;;;;;;;6.35;2.52;;;;;;;21.58;56.24;101175.77;2839894;82;21034;-85
2022/07/18 05:32:22;;;;;;;13.00;2.02;;;;;;;22.19;54.43;101164.23;2809581;83;21036;-86
2022/07/18 05:36:24;;;;;;;2.33;1.10;;;;;;;22.97;53.02;101174.37;2719792;86;20980;-86
2022/07/18 05:40:25;;;;;;;5.28;1.65;;;;;;;23.42;50.77;101164.55;2669404;86;21061;-86
2022/07/18 05:44:26;;;;;;;2.70;2.08;;;;;;;23.54;50.29;101167.94;2746389;85;21043;-86
2022/07/18 05:48:28;;;;;;;2.50;1.22;;;;;;;23.80;51.05;101171.16;2793552;84;21051;-86
2022/07/18 05:52:29;;;;;;;1.50;1.22;;;;;;;24.25;49.94;101158.78;2751134;85;21114;-86
2022/07/18 05:56:31;;;;;;;1.85;1.55;;;;;;;24.60;48.96;101153.42;2701025;86;21001;-86
2022/07/18 06:00:32;;;;;;;1.92;1.27;;;;;;;24.47;48.97;101154.17;2782046;84;21087;-86
2022/07/18 06:04:34;;;;;;;2.80;1.67;;;;;;;24.36;48.78;101158.23;2667170;86;21073;-86
2022/07/18 06:08:36;;;;;;;2.42;1.27;;;;;;;24.79;49.65;101149.71;2714386;85;21072;-86
2022/07/18 06:12:38;;;;;;;5.22;1.67;;;;;;;25.51;48.40;101150.28;2712831;87;21017;-86
2022/07/18 06:16:39;;;;;;;4.47;1.75;;;;;;;26.32;46.98;101145.52;2730282;85;21004;-86
2022/07/18 06:20:41;;;;;;;3.08;1.32;;;;;;;27.05;45.69;101149.20;2715086;85;21035;-86
2022/07/18 06:24:42;;;;;;;2.33;1.55;;;;;;;27.33;44.07;101154.35;2718916;85;21028;-86
2022/07/18 06:28:43;;;;;;;3.67;1.42;;;;;;;27.27;43.83;101147.55;2759466;85;20996;-86
2022/07/18 06:32:45;;;;;;;5.97;1.70;;;;;;;27.80;44.65;101147.30;2757784;85;20984;-86
2022/07/18 06:36:46;;;;;;;3.87;1.75;;;;;;;27.64;43.12;101147.81;2795787;84;21046;-86
2022/07/18 06:40:47;;;;;;;8.30;2.50;;;;;;;28.01;42.77;101143.90;2772060;84;20999;-87
2022/07/18 06:44:49;;;;;;;4.17;1.00;;;;;;;27.69;42.07;101146.63;2752695;86;21550;-86
2022/07/18 06:48:50;;;;;;;3.42;1.35;;;;;;;28.04;42.11;101136.62;2772342;86;21013;-87
2022/07/18 06:52:53;;;;;;;8.93;1.65;;;;;;;28.02;41.42;101134.64;2772609;84;21042;-86
2022/07/18 06:56:55;;;;;;;3.45;2.05;;;;;;;27.55;41.13;101131.39;2773918;86;21043;-86
2022/07/18 07:00:57;;;;;;;3.52;1.32;;;;;;;27.87;41.62;101122.66;2771247;84;20999;-86
2022/07/18 07:04:59;;;;;;;16.95;5.70;;;;;;;28.18;40.50;101114.67;2779940;84;21028;-86
2022/07/18 07:09:00;;;;;;;3.92;1.40;;;;;;;28.62;39.76;101119.61;2744647;86;20989;-86
2022/07/18 07:13:01;;;;;;;1.62;0.98;;;;;;;28.28;39.80;101120.46;2755671;85;21025;-86
2022/07/18 07:17:05;;;;;;;2.62;1.00;;;;;;;28.44;40.41;101111.37;2720694;84;20976;-86
2022/07/18 07:21:08;;;;;;;1.55;1.05;;;;;;;28.35;38.94;101110.83;2764607;85;31549;-87
2022/07/18 07:25:10;;;;;;;1.57;0.90;;;;;;;28.45;37.83;101104.84;2810314;84;21689;-86
2022/07/18 07:29:12;;;;;;;20.95;3.85;;;;;;;28.66;37.78;101106.32;2809502;84;21019;-86
2022/07/18 07:33:13;;;;;;;1.72;0.98;;;;;;;29.00;38.79;101097.75;2808770;83;21028;-86
2022/07/18 07:37:14;;;;;;;8.75;1.90;;;;;;;29.10;37.30;101106.27;2756875;85;21031;-86
2022/07/18 07:41:16;;;;;;;2.92;1.42;;;;;;;29.31;36.43;101100.81;2790038;84;21015;-86
2022/07/18 07:45:18;;;;;;;0.98;0.80;;;;;;;28.80;35.99;101096.09;2810370;84;21079;-86
2022/07/18 07:49:19;;;;;;;4.03;0.93;;;;;;;28.80;35.99;101096.09;2809163;83;21096;-86
2022/07/18 07:53:22;;;;;;;2.00;1.37;;;;;;;29.00;36.73;101095.02;2809280;84;21040;-86
2022/07/18 07:57:23;;;;;;;4.25;0.88;;;;;;;28.95;35.76;101100.35;2817860;83;21000;-86
2022/07/18 08:01:24;;;;;;;9.30;1.17;;;;;;;29.16;36.93;101091.65;2802779;83;21023;-87
2022/07/18 08:05:28;;;;;;;1.55;1.02;;;;;;;29.48;36.15;101088.72;2792795;84;21016;-86
2022/07/18 08:09:30;;;;;;;1.00;0.63;;;;;;;29.63;36.50;101092.39;2795021;84;21023;-86
2022/07/18 08:13:31;;;;;;;1.55;0.65;;;;;;;29.75;35.71;101087.45;2801978;84;21064;-86
2022/07/18 08:17:32;;;;;;;3.02;1.45;;;;;;;29.66;36.00;101087.52;2815950;83;20992;-86
2022/07/18 08:21:34;;;;;;;2.92;1.32;;;;;;;29.63;35.65;101082.80;2801859;83;21011;-87
2022/07/18 08:25:40;;;;;;;1.47;1.22;;;;;;;29.47;34.74;101082.91;2803113;84;20968;-86
2022/07/18 08:29:41;;;;;;;5.58;1.47;;;;;;;29.57;35.68;101082.34;2767309;84;21011;-87
2022/07/18 08:33:42;;;;;;;3.72;1.27;;;;;;;29.47;35.67;101081.54;2785157;83;21051;-86
2022/07/18 08:37:44;;;;;;;4.33;1.52;;;;;;;29.07;36.11;101082.06;2782487;84;21542;-86
2022/07/18 08:41:49;;;;;;;5.03;1.75;;;;;;;28.88;36.25;101087.55;2724474;84;21026;-86
2022/07/18 08:45:57;;;;;;;12.95;3.65;;;;;;;29.05;36.15;101082.83;2793167;84;20992;-86
2022/07/18 08:50:01;;;;;;;4.53;2.17;;;;;;;29.31;36.67;101075.34;2781989;84;21020;-86
2022/07/18 08:54:03;;;;;;;10.55;2.33;;;;;;;29.36;36.25;101072.19;2770116;84;21587;-86
2022/07/18 08:58:05;;;;;;;4.97;1.65;;;;;;;29.17;35.42;101081.00;2792207;83;22902;-87
2022/07/18 09:02:07;;;;;;;8.40;2.45;;;;;;;29.26;35.86;101075.18;2791216;84;21475;-86
2022/07/18 09:06:13;;;;;;;6.30;1.60;;;;;;;29.39;36.44;101073.63;2807862;84;20996;-87
2022/07/18 09:10:16;;;;;;;3.62;1.92;;;;;;;29.59;35.93;101073.38;2768043;84;21007;-86
2022/07/18 09:14:40;;;;;;;4.50;1.57;;;;;;;29.62;36.62;101072.91;2758591;85;21051;-86
2022/07/18 09:18:45;;;;;;;4.28;1.35;;;;;;;29.57;35.08;101069.20;2756460;84;21015;-87
2022/07/18 09:22:48;;;;;;;6.70;1.47;;;;;;;29.52;36.17;101073.18;2762161;84;21019;-86
2022/07/18 09:26:50;;;;;;;3.20;1.27;;;;;;;29.68;37.41;101073.88;2774202;86;21047;-86
2022/07/18 09:30:52;;;;;;;8.20;2.67;;;;;;;29.87;36.64;101065.55;2750414;85;21060;-86
2022/07/18 09:34:53;;;;;;;3.30;1.82;;;;;;;30.06;36.91;101063.03;2727032;85;21609;-86
2022/07/18 09:38:55;;;;;;;2.45;0.85;;;;;;;30.08;37.37;101049.64;2817107;84;21076;-86
2022/07/18 09:43:01;;;;;;;20.77;3.40;;;;;;;30.15;37.36;101059.95;2835817;83;21026;-87
2022/07/18 09:47:04;;;;;;;4.67;1.98;;;;;;;29.89;36.76;101052.46;2837809;82;21031;-86
2022/07/18 09:51:07;;;;;;;4.53;2.45;;;;;;;29.98;37.70;101054.31;2813321;83;21018;-87
2022/07/18 09:55:09;;;;;;;4.83;1.40;;;;;;;30.14;36.52;101056.36;2766738;82;21026;-87
2022/07/18 09:59:11;;;;;;;3.25;1.20;;;;;;;30.17;36.88;101050.94;2849813;81;21717;-87
2022/07/18 10:03:13;;;;;;;3.50;1.72;;;;;;;30.26;36.47;101046.74;2819004;83;21059;-87
2022/07/18 10:07:16;;;;;;;1.57;1.32;;;;;;;30.39;37.05;101044.84;2831259;83;21043;-86
2022/07/18 10:11:18;;;;;;;3.10;1.12;;;;;;;30.30;35.87;101041.09;2856042;82;21022;-86
2022/07/18 10:15:22;;;;;;;13.20;3.30;;;;;;;30.42;35.98;101041.61;2836905;82;20976;-86
2022/07/18 10:19:23;;;;;;;3.15;1.20;;;;;;;30.18;36.47;101038.37;2772705;82;21030;-86
2022/07/18 10:23:35;;;;;;;4.33;1.47;;;;;;;29.87;35.93;101027.16;2824727;82;21003;-86
2022/07/18 10:27:51;;;;;;;21.82;2.37;;;;;;;30.03;36.62;101029.23;2785497;82;21003;-87
2022/07/18 10:32:02;;;;;;;5.15;1.72;;;;;;;29.93;35.86;101032.53;2834430;82;21010;-87
2022/07/18 10:36:08;;;;;;;6.33;1.50;;;;;;;29.68;36.01;101025.91;2826755;81;21053;-86
2022/07/18 10:40:28;;;;;;;0.72;0.62;;;;;;;29.60;36.42;101028.98;2842145;82;21006;-86
2022/07/18 10:44:35;;;;;;;1.52;0.72;;;;;;;29.49;36.77;101026.52;2850432;82;21030;-87
2022/07/18 10:48:42;;;;;;;4.50;1.25;;;;;;;29.77;36.32;101020.89;2813592;83;21523;-86
2022/07/18 10:52:54;;;;;;;3.60;1.02;;;;;;;29.70;36.19;101013.32;2822569;82;20971;-86
2022/07/18 10:57:01;;;;;;;6.12;2.10;;;;;;;29.78;36.84;101015.73;2814729;83;21054;-86
2022/07/18 11:01:06;;;;;;;2.15;0.98;;;;;;;29.87;36.72;101012.92;2798750;83;21007;-86
2022/07/18 11:05:31;;;;;;;5.60;1.40;;;;;;;29.99;36.90;101004.70;2813999;82;21124;-87
2022/07/18 11:09:39;;;;;;;;;;;;;;;30.15;36.14;101005.09;2811386;82;21022;-86
2022/07/18 11:13:48;;;;;;;1.35;0.80;;;;;;;30.09;37.08;101004.69;2767013;84;20089;-87
2022/07/18 11:18:02;;;;;;;2.85;0.80;;;;;;;30.08;35.49;100996.97;2833724;82;21011;-86
2022/07/18 11:22:03;;;;;;;2.27;1.12;;;;;;;30.14;36.35;100987.78;2840245;82;20995;-87
2022/07/18 11:26:05;;;;;;;2.75;1.02;;;;;;;30.08;35.27;100986.55;2807872;81;21420;-86
2022/07/18 11:30:08;;;;;;;4.40;0.95;;;;;;;29.92;35.39;100989.73;2839433;83;21009;-86
2022/07/18 11:34:09;;;;;;;2.58;1.17;;;;;;;29.83;35.64;100969.77;2827455;81;21035;-86
2022/07/18 11:38:11;;;;;;;4.62;1.20;;;;;;;29.82;36.79;100969.47;2835855;82;20988;-86
2022/07/18 11:42:12;;;;;;;1.67;0.95;;;;;;;29.83;35.58;100962.38;2823219;82;21059;-86
2022/07/18 11:46:17;;;;;;;2.37;1.20;;;;;;;29.74;36.35;100959.16;2828831;82;21038;-86
2022/07/18 11:50:37;;;;;;;7.00;2.75;;;;;;;29.73;35.74;100953.91;2831732;83;21026;-87
2022/07/18 11:54:38;;;;;;;4.28;1.77;;;;;;;29.77;36.33;100949.61;2786926;83;20984;-86
2022/07/18 11:58:42;;;;;;;3.33;1.17;;;;;;;29.90;36.22;100943.08;2820847;83;20983;-86
2022/07/18 12:02:43;;;;;;;3.27;0.78;;;;;;;29.92;35.62;100953.27;2813056;83;21048;-86
2022/07/18 12:07:13;;;;;;;5.62;1.02;;;;;;;29.92;35.41;100933.52;2808014;83;21068;-86
2022/07/18 12:11:28;;;;;;;2.17;1.07;;;;;;;29.88;35.70;100941.93;2802053;81;20992;-86
2022/07/18 12:15:39;;;;;;;2.12;0.93;;;;;;;29.97;35.57;100936.06;2716144;84;20968;-86
2022/07/18 12:19:40;;;;;;;3.62;1.32;;;;;;;30.16;36.58;100927.20;2788815;83;21051;-86
2022/07/18 12:23:41;;;;;;;5.72;1.67;;;;;;;30.32;36.33;100930.56;2817654;83;21520;-86
2022/07/18 12:27:43;;;;;;;5.45;1.60;;;;;;;30.42;35.90;100929.94;2814586;82;21080;-86
2022/07/18 12:31:46;;;;;;;4.40;2.15;;;;;;;30.51;35.19;100922.16;2819993;83;21094;-86
2022/07/18 12:35:56;;;;;;;2.42;1.30;;;;;;;30.40;35.74;100925.77;2808112;83;21028;-86
2022/07/18 12:40:11;;;;;;;3.37;1.42;;;;;;;30.52;35.83;100922.45;2803888;82;21012;-85
2022/07/18 12:44:14;;;;;;;2.98;1.35;;;;;;;30.44;34.86;100916.81;2887238;79;21069;-86
2022/07/18 12:48:20;;;;;;;12.60;1.33;;;;;;;30.51;34.86;100904.31;2890818;80;21007;-84
2022/07/18 12:52:22;;;;;;;2.62;0.95;;;;;;;30.54;35.12;100903.83;2877319;80;21015;-84
2022/07/18 12:56:24;;;;;;;13.70;3.27;;;;;;;30.67;35.15;100904.09;2879403;80;21557;-88
2022/07/18 13:00:29;;;;;;;2.52;0.72;;;;;;;30.75;35.18;100893.25;2896517;80;21091;-84
2022/07/18 13:04:30;;;;;;;2.40;1.15;;;;;;;30.73;34.68;100901.73;2883715;82;21003;-84
2022/07/18 13:08:32;;;;;;;1.87;0.93;;;;;;;30.90;35.35;100897.66;2858876;80;21011;-85
2022/07/18 13:12:34;;;;;;;4.75;0.75;;;;;;;31.10;34.67;100883.13;2862483;82;20967;-85
2022/07/18 13:16:36;;;;;;;1.67;0.80;;;;;;;31.24;34.92;100885.03;2901151;82;20963;-84
2022/07/18 13:20:37;;;;;;;2.67;1.30;;;;;;;31.08;35.03;100879.28;2837918;82;20989;-86
2022/07/18 13:24:39;;;;;;;2.92;1.65;;;;;;;31.02;34.16;100878.36;2909060;80;20959;-86
2022/07/18 13:28:44;;;;;;;3.30;1.07;;;;;;;31.04;34.34;100883.05;2875238;80;21291;-85
2022/07/18 13:32:45;;;;;;;;;;;;;;;31.09;34.43;100873.23;2882513;80;20987;-85
2022/07/18 13:36:50;;;;;;;3.50;0.95;;;;;;;31.17;34.52;100872.83;2897412;80;20103;-86
2022/07/18 13:40:52;;;;;;;88.62;13.32;;;;;;;31.39;34.81;100863.85;2883653;80;21015;-85
2022/07/18 13:44:53;;;;;;;39.10;5.55;;;;;;;31.45;34.99;100860.94;2903502;81;20978;-87
2022/07/18 13:48:55;;;;;;;8.10;1.82;;;;;;;31.56;34.88;100859.69;2895291;80;21547;-87
2022/07/18 13:52:57;;;;;;;5.50;1.75;;;;;;;31.83;35.34;100857.59;2905236;80;21028;-87
2022/07/18 13:56:59;;;;;;;7.28;2.20;;;;;;;31.90;34.13;100863.77;2904989;80;21627;-87
2022/07/18 14:01:00;;;;;;;4.40;1.15;;;;;;;31.75;34.41;100854.74;2903824;80;20998;-88
2022/07/18 14:05:07;;;;;;;1.62;1.15;;;;;;;31.54;34.00;100857.73;2915631;80;20993;-89
2022/07/18 14:09:15;;;;;;;7.65;2.27;;;;;;;31.62;34.43;100854.55;2884268;80;20995;-89
2022/07/18 14:13:17;;;;;;;3.40;0.90;;;;;;;31.51;33.64;100853.57;2881775;80;21292;-87
2022/07/18 14:17:19;;;;;;;2.67;1.07;;;;;;;31.66;33.52;100843.35;2918312;80;20974;-90
2022/07/18 14:21:24;;;;;;;9.30;3.90;;;;;;;31.82;34.90;100842.19;2904394;80;21014;-89
2022/07/18 14:25:25;;;;;;;2.40;0.70;;;;;;;31.97;34.16;100839.64;2908616;80;21007;-88
2022/07/18 14:29:29;;;;;;;1.98;0.98;;;;;;;31.96;33.51;100842.66;2878147;81;21557;-88
2022/07/18 14:33:30;;;;;;;2.77;1.10;;;;;;;31.80;33.16;100845.21;2888436;80;21000;-87
2022/07/18 14:37:32;;;;;;;2.05;0.57;;;;;;;31.86;33.94;100837.30;2910087;80;20979;-89
2022/07/18 14:45:51;;;;;;;13.88;3.62;;;;;;;32.00;34.12;100823.98;2842342;80;21771;-93
2022/07/18 14:49:57;;;;;;;2.00;1.00;;;;;;;32.10;33.41;100815.58;2871030;81;21374;-89
2022/07/18 14:53:59;;;;;;;2.17;1.22;;;;;;;32.04;33.80;100814.16;2861063;82;21003;-93
2022/07/18 14:58:02;;;;;;;5.30;1.40;;;;;;;32.29;33.74;100808.64;2867072;82;21004;-95
2022/07/18 15:02:05;;;;;;;27.40;6.08;;;;;;;32.48;33.98;100809.67;2899674;82;20999;-95
2022/07/18 15:06:07;;;;;;;1.60;1.02;;;;;;;32.34;33.35;100815.59;2843362;80;21008;-90
2022/07/18 15:10:10;;;;;;;66.62;10.10;;;;;;;32.51;33.78;100806.94;2858286;80;20959;-92
2022/07/18 15:14:11;;;;;;;5.58;1.62;;;;;;;32.69;34.46;100809.86;2804597;82;20975;-92
2022/07/18 15:18:14;;;;;;;1.85;1.25;;;;;;;32.50;33.13;100811.62;2834384;82;21173;-91
2022/07/18 15:22:18;;;;;;;2.72;1.95;;;;;;;32.35;33.47;100805.43;2847484;80;21026;-94
2022/07/18 15:26:25;;;;;;;8.90;2.17;;;;;;;32.28;33.49;100804.75;2837750;82;20999;-92
2022/07/18 15:30:27;;;;;;;1.55;1.02;;;;;;;32.23;34.62;100799.20;2896035;80;21000;-93
2022/07/18 15:34:29;;;;;;;3.15;0.88;;;;;;;32.09;33.52;100784.47;2900147;80;21097;-89
2022/07/18 15:38:30;;;;;;;1.72;1.30;;;;;;;31.84;33.94;100791.91;2927516;80;20999;-93
2022/07/18 15:42:32;;;;;;;27.15;4.62;;;;;;;31.49;34.47;100792.00;2860958;82;21006;-89
2022/07/18 15:46:34;;;;;;;2.67;1.50;;;;;;;31.17;34.41;100795.91;2896489;80;21007;-89
2022/07/18 15:50:35;;;;;;;3.02;1.82;;;;;;;30.90;34.69;100788.34;2901714;80;21510;-89
2022/07/18 15:54:37;;;;;;;2.10;1.15;;;;;;;30.80;35.17;100786.26;2842351;80;21027;-89
2022/07/18 15:58:39;;;;;;;3.83;1.77;;;;;;;30.74;35.79;100787.27;2837543;80;21030;-88
2022/07/18 16:02:40;;;;;;;2.20;1.20;;;;;;;30.94;35.53;100770.83;2902989;80;21050;-91
2022/07/18 16:06:42;;;;;;;1.50;1.32;;;;;;;31.24;35.65;100776.50;2916323;80;21007;-89
2022/07/18 16:10:44;;;;;;;4.08;1.65;;;;;;;31.53;35.44;100776.36;2875319;81;20999;-88
2022/07/18 16:14:46;;;;;;;2.27;1.52;;;;;;;31.72;35.07;100771.36;2896405;80;21014;-91
2022/07/18 16:18:47;;;;;;;5.08;1.92;;;;;;;31.86;35.03;100763.61;2867169;81;21058;-90
2022/07/18 16:22:49;;;;;;;3.00;1.57;;;;;;;31.89;34.78;100760.34;2897673;82;20951;-88
2022/07/18 16:26:51;;;;;;;10.00;2.15;;;;;;;31.84;34.44;100761.10;2898914;80;21129;-90
2022/07/18 16:30:53;;;;;;;1.98;0.95;;;;;;;31.87;35.11;100761.95;2887437;80;20995;-90
2022/07/18 16:34:54;;;;;;;4.05;2.08;;;;;;;31.75;34.81;100760.69;2890265;81;20982;-88
2022/07/18 16:38:56;;;;;;;3.87;1.37;;;;;;;31.46;34.83;100762.27;2898218;80;21549;-88
2022/07/18 16:42:59;;;;;;;3.35;1.82;;;;;;;31.18;35.26;100761.30;2906714;80;21003;-88
2022/07/18 16:47:01;;;;;;;4.83;1.35;;;;;;;30.80;35.35;100761.55;2883924;81;20960;-88
2022/07/18 16:51:06;;;;;;;2.55;1.90;;;;;;;30.59;35.84;100761.19;2865258;81;21617;-88
2022/07/18 16:55:10;;;;;;;2.83;1.57;;;;;;;30.43;36.24;100766.95;2873631;82;21034;-89
2022/07/18 16:59:12;;;;;;;4.30;1.77;;;;;;;30.27;36.80;100764.48;2867084;81;21047;-90
2022/07/18 17:03:14;;;;;;;5.28;2.05;;;;;;;30.16;36.86;100761.25;2868960;81;21044;-89
2022/07/18 17:07:16;;;;;;;2.67;1.62;;;;;;;30.09;37.34;100774.29;2962036;79;20979;-89
2022/07/18 17:11:18;;;;;;;56.50;11.18;;;;;;;30.04;37.45;100763.49;2960126;79;21033;-90
2022/07/18 17:15:21;;;;;;;6.47;1.70;;;;;;;30.03;37.69;100765.13;2960566;79;20975;-87
2022/07/18 17:19:23;;;;;;;1.80;1.07;;;;;;;29.95;37.61;100769.05;2961116;79;21046;-87
2022/07/18 17:23:26;;;;;;;5.90;1.70;;;;;;;29.88;37.45;100765.63;2961557;79;20975;-90
2022/07/18 17:27:28;;;;;;;2.55;1.82;;;;;;;29.82;37.43;100762.47;2959071;79;20979;-90
2022/07/18 17:31:30;;;;;;;1.87;1.52;;;;;;;29.72;37.64;100766.69;2948341;79;20995;-88
2022/07/18 17:35:33;;;;;;;1.45;1.25;;;;;;;29.62;38.16;100761.83;2933005;78;21015;-88
2022/07/18 17:39:36;;;;;;;2.60;1.52;;;;;;;29.48;39.02;100756.31;2959265;78;21587;-89
2022/07/18 17:43:49;;;;;;;30.75;5.72;;;;;;;29.31;39.00;100767.16;2933488;80;20988;-92
2022/07/18 17:47:54;;;;;;;5.35;2.30;;;;;;;29.08;39.45;100759.22;2924466;79;21054;-90
2022/07/18 17:51:56;;;;;;;2.98;1.80;;;;;;;28.91;38.10;100765.95;2916614;79;20979;-91
2022/07/18 18:00:07;;;;;;;16.25;2.85;;;;;;;28.54;38.54;100764.21;2898192;81;21034;-92
2022/07/18 18:04:08;;;;;;;48.17;9.00;;;;;;;28.37;38.97;100768.13;2966792;79;20975;-93
2022/07/18 18:08:19;;;;;;;52.93;10.58;;;;;;;28.15;40.75;100777.38;2933471;79;21676;-92
2022/07/18 18:12:17;;;;;;;32.10;6.35;;;;;;;27.68;40.37;100767.85;2842833;83;21122;-91
2022/07/18 18:16:19;;;;;;;28.80;7.47;;;;;;;27.31;40.90;100773.27;2845209;82;21799;-91
2022/07/18 18:20:20;;;;;;;46.48;14.40;;;;;;;27.31;40.90;100773.27;2824604;83;21011;-91
2022/07/18 18:24:22;;;;;;;141.43;25.40;;;;;;;27.23;42.42;100773.88;2819034;82;21010;-89
2022/07/18 18:28:24;;;;;;;87.65;16.32;;;;;;;27.07;42.85;100774.45;2844083;82;20963;-90
2022/07/18 18:32:26;;;;;;;9.68;2.05;;;;;;;26.96;42.91;100769.73;2770771;83;20966;-89
2022/07/18 18:40:48;;;;;;;12.90;2.90;;;;;;;26.63;43.15;100776.56;2830381;83;20974;-88
2022/07/18 18:44:50;;;;;;;9.93;1.85;;;;;;;26.41;43.28;100786.16;2856253;83;21449;-88
2022/07/18 18:48:52;;;;;;;10.18;2.50;;;;;;;26.18;43.64;100783.47;2812661;84;21035;-90
2022/07/18 18:52:53;;;;;;;18.40;4.25;;;;;;;25.91;43.72;100790.34;2835976;83;20938;-89
2022/07/18 18:56:55;;;;;;;20.20;4.33;;;;;;;25.66;43.49;100797.38;2840612;80;20999;-85
2022/07/18 19:00:56;;;;;;;160.00;30.17;;;;;;;25.44;43.77;100798.11;2831573;82;21003;-88